Tuesday, May 31, 2016
16:07 UTC
  |  Log In   |  Register Free
Airport Search:

Laguardia Airport
(KLGA)

FAA data valid effective Mar 31 2016 - May 26 2016 (unless otherwise noted).

 
 
 
 
 
 
 
 
 
 
 
 
 
 
Current Aviation Weather for KLGA

Weather Summary


The most recent METAR observation for LGA was updated at: 12:51 UTC
METAR for KLGA is not available. Closest METAR is for KJFK
KLGA  (most recent observation was updatred at 31:14 UTC)
311451Z 06009G16KT 10SM FEW025 SCT065 BKN250 26/16 A2997

KJFK  (9.3 nm NW)   (most recent observation was updated at 31:14 UTC)
311451Z 18003KT 10SM FEW020 BKN060 BKN280 23/20 A2999 RMK AO2 SLP153 T02280200 51008

KTEB  (9.6 nm SE)   (most recent observation was updated at 31:14 UTC)
311451Z 02005KT 10SM FEW090 27/15 A2996 RMK AO2 SLP146 T02670150 51007 $

TAF for KLGA is not available.
KLGA
AMD 311520Z 3115/0112 06010G17KT P6SM SCT035 BKN250 FM311700 05007KT P6SM SCT050 FM312100 19008KT P6SM FEW080 FM010100 24006KT P6SM FEW080 FM010300 VRB05KT P6SM FEW080 FM010600 03005KT P6SM FEW080

KJFK  (9.3 nm NW)   (most recent observation was updatred at 31:15 UTC)
AMD 311524Z 3115/0118 18005KT P6SM SCT025 BKN060 FM311700 18010G14KT P6SM SCT030 BKN060 FM010000 19007KT P6SM FEW080 FM010200 VRB04KT P6SM FEW080 FM010600 02005KT P6SM FEW080 FM010900 04006KT P6SM FEW080 FM011600 16008KT P6SM FEW080


KTEB  (9.6 nm SE)   (most recent observation was updatred at 31:13 UTC)
AMD 311321Z 3113/0112 30005KT P6SM SCT150 FM311400 36005KT P6SM SCT035 FM311800 30007KT P6SM SCT050 FM312000 15006KT P6SM FEW080 FM010000 VRB03KT P6SM FEW080
GlobalAir.com is loading additional information.
 Current Weather at LGA
79.0 F° (26.1 C°)

Northeast winds at 10.4 mph
Pressure:
29.97 in
Humidity:
54%
Wind:
Northeast at 10.4 mph
Dew Point:
61.0 F° (16.1 C°)
Visibility:
10.00 mi
LGA NOAA Radar




Find All Airport Services Find A Hotel Find A Rental Car Find A Golf Course Find A Restaurant $100 Hamburger



Airport Weather Forecast for KLGA

Translated METAR for KLGA (1451 UTC)
METAR:
KLGA 311451Z 06009G16KT 10SM FEW025 SCT065 BKN250 26/16 A2997
Conditions at:
KLGA (Laguardia, NY) observed 1451 UTC 31 May 2016
Temperature:
26°C (78.8°F)
Dewpoint:
16°C (60.8°F) [RH = 54.1]
Pressure:
29.97 inches Hg (1014.9 mb)
Winds:
from the ENE (060 degrees) at 10.4 mph (9 knots: 4.6 m/s)
gusting to 18.4 mph (16 knots: 8.2 m/s)
Visibility:
10 mile(s)
Ceiling:
25,000 feet AGL
Clouds:
Few Clouds at 2,500 feet AGL
Scattered Clouds at 6,500 feet AGL
Broken Cloud Cover at 25,000 feet AGL
Remarks:

FBO's on the Field
FBO Company Facility Photos Services Transportation Aviation Fuel Prices: Prices include tax
Catering Weather Repair Courtesy Rental Type 100LL JetA JetA+ MOGAS 8087
 
Sheltair

This FBO has not yet been rated
FS:Avfuel
Last Updated: May-13
Login to update fuel prices
SS:
Contact SheltairMore FBO Information
 
Add another FBO Facility Photos Catering Weather Repair Courtesy Rental Type 100LL JetA JetA+ MOGAS 8087
Services Transportation Aviation Fuel Prices: Prices include tax


model-print
model-print
model-print
model-print